PWSweather.com
Personal Weather Stations
Station Observations
SELKIRK1
Ontario, Selkirk, ON N0A 1P0

OntarioSelkirk, ON N0A 1P0

Lat: 42.8083652, Lon: -79.94971040000001

Elevation: 583

Station Type: Acurite 5 in 1

http://gavinsurf.com

High Low Average
Temperature 79.4°F26.3°C 55.4°F13.0°C 66.2°F19.0°C
Dew Point 61.6°F16.4°C 41.9°F5.5°C 49.0°F9.4°C
Winds 8.1 mph 13.0 kmh Calm Calm 3.0 mph E4.8 kmh E
Wind Gusts 9.2 mph14.8 kmh -- 4.0 mph6.4 kmh
Humidity 72% 34% 55%
Pressure 31.83 in1077.9 mb 31.83 in1077.9 mb -
Precipitation 0.00 in0.0 mm - -
Hour Temp Dew Point Humidity Winds Wind Gusts Pressure Precip Precip Rate Daily Precip Total
12:00 AM 64.5°F18.1°C 43.2°F6.2°C 46% 3.5 mph E5.6 kmh E 3.5 mph5.6 kmh 31.83 in1077.9 mb - 0.00 in0.0 mm 0.00 in0.0 mm
12:10 AM 64.1°F17.8°C 42.9°F6.1°C 46% 3.5 mph E5.6 kmh E 3.5 mph5.6 kmh 31.83 in1077.9 mb - 0.00 in0.0 mm 0.00 in0.0 mm
12:15 AM 63.9°F17.7°C 42.1°F5.6°C 45% 3.5 mph E5.6 kmh E 4.6 mph7.4 kmh 31.83 in1077.9 mb - 0.00 in0.0 mm 0.00 in0.0 mm
12:20 AM 64.1°F17.8°C 41.7°F5.4°C 44% 4.6 mph E7.4 kmh E 4.6 mph7.4 kmh 31.83 in1077.9 mb - 0.00 in0.0 mm 0.00 in0.0 mm
12:25 AM 64.1°F17.8°C 41.7°F5.4°C 44% 3.5 mph E5.6 kmh E 4.6 mph7.4 kmh 31.83 in1077.9 mb - 0.00 in0.0 mm 0.00 in0.0 mm
12:30 AM 64.2°F17.9°C 41.8°F5.4°C 44% 3.5 mph E5.6 kmh E 4.6 mph7.4 kmh 31.83 in1077.9 mb - 0.00 in0.0 mm 0.00 in0.0 mm
12:35 AM 64.2°F17.9°C 41.8°F5.4°C 44% 4.6 mph E7.4 kmh E 4.6 mph7.4 kmh 31.83 in1077.9 mb - 0.00 in0.0 mm 0.00 in0.0 mm
12:40 AM 64.2°F17.9°C 41.8°F5.4°C 44% 4.6 mph ESE7.4 kmh ESE 4.6 mph7.4 kmh 31.83 in1077.9 mb - 0.00 in0.0 mm 0.00 in0.0 mm
12:45 AM 64.2°F17.9°C 41.8°F5.4°C 44% 4.6 mph ESE7.4 kmh ESE 4.6 mph7.4 kmh 31.83 in1077.9 mb - 0.00 in0.0 mm 0.00 in0.0 mm
12:50 AM 63.9°F17.7°C 42.1°F5.6°C 45% 3.5 mph E5.6 kmh E 4.6 mph7.4 kmh 31.83 in1077.9 mb - 0.00 in0.0 mm 0.00 in0.0 mm
12:55 AM 63.9°F17.7°C 42.1°F5.6°C 45% 3.5 mph E5.6 kmh E 4.6 mph7.4 kmh 31.83 in1077.9 mb - 0.00 in0.0 mm 0.00 in0.0 mm
01:00 AM 63.7°F17.6°C 41.9°F5.5°C 45% 3.5 mph E5.6 kmh E 4.6 mph7.4 kmh 31.83 in1077.9 mb - 0.00 in0.0 mm 0.00 in0.0 mm
01:10 AM 63.5°F17.5°C 42.3°F5.7°C 46% 4.6 mph E7.4 kmh E 5.8 mph9.3 kmh 31.83 in1077.9 mb - 0.00 in0.0 mm 0.00 in0.0 mm
01:15 AM 63.3°F17.4°C 42.7°F5.9°C 47% 3.5 mph E5.6 kmh E 4.6 mph7.4 kmh 31.83 in1077.9 mb - 0.00 in0.0 mm 0.00 in0.0 mm
01:20 AM 63.3°F17.4°C 43.2°F6.2°C 48% 4.6 mph E7.4 kmh E 4.6 mph7.4 kmh 31.83 in1077.9 mb - 0.00 in0.0 mm 0.00 in0.0 mm
01:25 AM 63.2°F17.3°C 44.2°F6.8°C 50% 4.6 mph E7.4 kmh E 4.6 mph7.4 kmh 31.83 in1077.9 mb - 0.00 in0.0 mm 0.00 in0.0 mm
01:30 AM 63.2°F17.3°C 44.7°F7.1°C 51% 4.6 mph E7.4 kmh E 4.6 mph7.4 kmh 31.83 in1077.9 mb - 0.00 in0.0 mm 0.00 in0.0 mm
01:35 AM 63.2°F17.3°C 44.7°F7.1°C 51% 3.5 mph E5.6 kmh E 4.6 mph7.4 kmh 31.83 in1077.9 mb - 0.00 in0.0 mm 0.00 in0.0 mm
01:40 AM 63.2°F17.3°C 44.7°F7.1°C 51% 4.6 mph E7.4 kmh E 4.6 mph7.4 kmh 31.83 in1077.9 mb - 0.00 in0.0 mm 0.00 in0.0 mm
01:45 AM 63.0°F17.2°C 44.6°F7.0°C 51% 3.5 mph E5.6 kmh E 3.5 mph5.6 kmh 31.83 in1077.9 mb - 0.00 in0.0 mm 0.00 in0.0 mm
01:50 AM 62.8°F17.1°C 44.4°F6.9°C 51% 4.6 mph ESE7.4 kmh ESE 5.8 mph9.3 kmh 31.83 in1077.9 mb - 0.00 in0.0 mm 0.00 in0.0 mm
01:55 AM 62.8°F17.1°C 44.9°F7.2°C 52% 3.5 mph E5.6 kmh E 4.6 mph7.4 kmh 31.83 in1077.9 mb - 0.00 in0.0 mm 0.00 in0.0 mm
02:00 AM 62.6°F17.0°C 44.7°F7.1°C 52% 4.6 mph E7.4 kmh E 5.8 mph9.3 kmh 31.83 in1077.9 mb - 0.00 in0.0 mm 0.00 in0.0 mm
02:10 AM 62.3°F16.8°C 44.4°F6.9°C 52% 3.5 mph E5.6 kmh E 3.5 mph5.6 kmh 31.83 in1077.9 mb - 0.00 in0.0 mm 0.00 in0.0 mm
02:15 AM 61.9°F16.6°C 45.1°F7.3°C 54% 2.3 mph E3.7 kmh E 2.3 mph3.7 kmh 31.83 in1077.9 mb - 0.00 in0.0 mm 0.00 in0.0 mm
02:20 AM 61.5°F16.4°C 44.7°F7.1°C 54% 2.3 mph E3.7 kmh E 3.5 mph5.6 kmh 31.83 in1077.9 mb - 0.00 in0.0 mm 0.00 in0.0 mm
02:25 AM 61.3°F16.3°C 45.0°F7.2°C 55% 2.3 mph E3.7 kmh E 2.3 mph3.7 kmh 31.83 in1077.9 mb - 0.00 in0.0 mm 0.00 in0.0 mm
02:30 AM 61.0°F16.1°C 45.2°F7.3°C 56% 2.3 mph E3.7 kmh E 2.3 mph3.7 kmh 31.83 in1077.9 mb - 0.00 in0.0 mm 0.00 in0.0 mm
02:35 AM 60.8°F16.0°C 45.0°F7.2°C 56% 3.5 mph E5.6 kmh E 3.5 mph5.6 kmh 31.83 in1077.9 mb - 0.00 in0.0 mm 0.00 in0.0 mm
02:40 AM 60.6°F15.9°C 44.8°F7.1°C 56% 2.3 mph E3.7 kmh E 3.5 mph5.6 kmh 31.83 in1077.9 mb - 0.00 in0.0 mm 0.00 in0.0 mm
02:45 AM 60.5°F15.8°C 45.2°F7.3°C 57% 2.3 mph E3.7 kmh E 2.3 mph3.7 kmh 31.83 in1077.9 mb - 0.00 in0.0 mm 0.00 in0.0 mm
02:50 AM 60.1°F15.6°C 45.2°F7.3°C 58% 2.3 mph E3.7 kmh E 2.3 mph3.7 kmh 31.83 in1077.9 mb - 0.00 in0.0 mm 0.00 in0.0 mm
02:55 AM 59.7°F15.4°C 44.9°F7.2°C 58% 2.3 mph E3.7 kmh E 2.3 mph3.7 kmh 31.83 in1077.9 mb - 0.00 in0.0 mm 0.00 in0.0 mm
03:00 AM 59.4°F15.2°C 45.1°F7.3°C 59% 2.3 mph E3.7 kmh E 2.3 mph3.7 kmh 31.83 in1077.9 mb - 0.00 in0.0 mm 0.00 in0.0 mm
03:10 AM 59.0°F15.0°C 45.1°F7.3°C 60% 2.3 mph E3.7 kmh E 2.3 mph3.7 kmh 31.83 in1077.9 mb - 0.00 in0.0 mm 0.00 in0.0 mm
03:15 AM 59.0°F15.0°C 45.1°F7.3°C 60% 2.3 mph E3.7 kmh E 2.3 mph3.7 kmh 31.83 in1077.9 mb - 0.00 in0.0 mm 0.00 in0.0 mm
03:20 AM 59.0°F15.0°C 45.1°F7.3°C 60% 3.5 mph E5.6 kmh E 3.5 mph5.6 kmh 31.83 in1077.9 mb - 0.00 in0.0 mm 0.00 in0.0 mm
03:25 AM 58.8°F14.9°C 44.9°F7.2°C 60% 2.3 mph E3.7 kmh E 2.3 mph3.7 kmh 31.83 in1077.9 mb - 0.00 in0.0 mm 0.00 in0.0 mm
03:30 AM 58.8°F14.9°C 44.9°F7.2°C 60% 2.3 mph E3.7 kmh E 2.3 mph3.7 kmh 31.83 in1077.9 mb - 0.00 in0.0 mm 0.00 in0.0 mm
03:35 AM 58.5°F14.7°C 45.1°F7.3°C 61% 2.3 mph ENE3.7 kmh ENE 2.3 mph3.7 kmh 31.83 in1077.9 mb - 0.00 in0.0 mm 0.00 in0.0 mm
03:40 AM 58.3°F14.6°C 45.3°F7.4°C 62% 2.3 mph ENE3.7 kmh ENE 2.3 mph3.7 kmh 31.83 in1077.9 mb - 0.00 in0.0 mm 0.00 in0.0 mm
03:45 AM 57.8°F14.3°C 44.9°F7.2°C 62% 2.3 mph ENE3.7 kmh ENE 2.3 mph3.7 kmh 31.83 in1077.9 mb - 0.00 in0.0 mm 0.00 in0.0 mm
03:50 AM 57.5°F14.2°C 45.0°F7.2°C 63% 2.3 mph ENE3.7 kmh ENE 2.3 mph3.7 kmh 31.83 in1077.9 mb - 0.00 in0.0 mm 0.00 in0.0 mm
03:55 AM 57.2°F14.0°C 45.1°F7.3°C 64% 2.3 mph E3.7 kmh E 2.3 mph3.7 kmh 31.83 in1077.9 mb - 0.00 in0.0 mm 0.00 in0.0 mm
04:00 AM 57.0°F13.9°C 45.3°F7.4°C 65% 2.3 mph NE3.7 kmh NE 2.3 mph3.7 kmh 31.83 in1077.9 mb - 0.00 in0.0 mm 0.00 in0.0 mm
04:10 AM 56.9°F13.8°C 45.6°F7.6°C 66% 2.3 mph E3.7 kmh E 2.3 mph3.7 kmh 31.83 in1077.9 mb - 0.00 in0.0 mm 0.00 in0.0 mm
04:15 AM 56.7°F13.7°C 45.4°F7.4°C 66% 2.3 mph ENE3.7 kmh ENE 2.3 mph3.7 kmh 31.83 in1077.9 mb - 0.00 in0.0 mm 0.00 in0.0 mm
04:20 AM 56.7°F13.7°C 45.4°F7.4°C 66% 2.3 mph E3.7 kmh E 2.3 mph3.7 kmh 31.83 in1077.9 mb - 0.00 in0.0 mm 0.00 in0.0 mm
04:25 AM 56.9°F13.8°C 45.6°F7.6°C 66% 2.3 mph E3.7 kmh E 2.3 mph3.7 kmh 31.83 in1077.9 mb - 0.00 in0.0 mm 0.00 in0.0 mm
04:30 AM 56.9°F13.8°C 45.6°F7.6°C 66% 2.3 mph E3.7 kmh E 2.3 mph3.7 kmh 31.83 in1077.9 mb - 0.00 in0.0 mm 0.00 in0.0 mm
04:35 AM 56.7°F13.7°C 45.8°F7.7°C 67% 2.3 mph E3.7 kmh E 2.3 mph3.7 kmh 31.83 in1077.9 mb - 0.00 in0.0 mm 0.00 in0.0 mm
04:40 AM 56.7°F13.7°C 45.8°F7.7°C 67% 2.3 mph E3.7 kmh E 2.3 mph3.7 kmh 31.83 in1077.9 mb - 0.00 in0.0 mm 0.00 in0.0 mm
04:45 AM 56.7°F13.7°C 45.8°F7.7°C 67% 2.3 mph E3.7 kmh E 3.5 mph5.6 kmh 31.83 in1077.9 mb - 0.00 in0.0 mm 0.00 in0.0 mm
04:50 AM 56.5°F13.6°C 46.0°F7.8°C 68% 2.3 mph E3.7 kmh E 3.5 mph5.6 kmh 31.83 in1077.9 mb - 0.00 in0.0 mm 0.00 in0.0 mm
04:55 AM 56.5°F13.6°C 46.0°F7.8°C 68% 2.3 mph E3.7 kmh E 3.5 mph5.6 kmh 31.83 in1077.9 mb - 0.00 in0.0 mm 0.00 in0.0 mm
05:00 AM 56.3°F13.5°C 45.9°F7.7°C 68% 2.3 mph ENE3.7 kmh ENE 3.5 mph5.6 kmh 31.83 in1077.9 mb - 0.00 in0.0 mm 0.00 in0.0 mm
05:10 AM 56.1°F13.4°C 46.0°F7.8°C 69% 2.3 mph E3.7 kmh E 2.3 mph3.7 kmh 31.83 in1077.9 mb - 0.00 in0.0 mm 0.00 in0.0 mm
05:15 AM 56.0°F13.3°C 46.3°F7.9°C 70% 2.3 mph E3.7 kmh E 2.3 mph3.7 kmh 31.83 in1077.9 mb - 0.00 in0.0 mm 0.00 in0.0 mm
05:20 AM 55.6°F13.1°C 46.0°F7.8°C 70% 2.3 mph ENE3.7 kmh ENE 2.3 mph3.7 kmh 31.83 in1077.9 mb - 0.00 in0.0 mm 0.00 in0.0 mm
05:25 AM 55.6°F13.1°C 45.9°F7.7°C 70% 2.3 mph E3.7 kmh E 3.5 mph5.6 kmh 31.83 in1077.9 mb - 0.00 in0.0 mm 0.00 in0.0 mm
05:30 AM 55.6°F13.1°C 45.9°F7.7°C 70% 2.3 mph ENE3.7 kmh ENE 3.5 mph5.6 kmh 31.83 in1077.9 mb - 0.00 in0.0 mm 0.00 in0.0 mm
05:35 AM 55.6°F13.1°C 45.9°F7.7°C 70% 2.3 mph ENE3.7 kmh ENE 3.5 mph5.6 kmh 31.83 in1077.9 mb - 0.00 in0.0 mm 0.00 in0.0 mm
05:40 AM 55.6°F13.1°C 45.9°F7.7°C 70% 2.3 mph ENE3.7 kmh ENE 3.5 mph5.6 kmh 31.83 in1077.9 mb - 0.00 in0.0 mm 0.00 in0.0 mm
05:45 AM 55.6°F13.1°C 46.3°F7.9°C 71% 2.3 mph E3.7 kmh E 3.5 mph5.6 kmh 31.83 in1077.9 mb - 0.00 in0.0 mm 0.00 in0.0 mm
05:50 AM 55.6°F13.1°C 46.3°F7.9°C 71% 2.3 mph E3.7 kmh E 3.5 mph5.6 kmh 31.83 in1077.9 mb - 0.00 in0.0 mm 0.00 in0.0 mm
05:55 AM 55.4°F13.0°C 46.1°F7.8°C 71% 2.3 mph ENE3.7 kmh ENE 3.5 mph5.6 kmh 31.83 in1077.9 mb - 0.00 in0.0 mm 0.00 in0.0 mm
06:00 AM 55.4°F13.0°C 46.1°F7.8°C 71% 2.3 mph ENE3.7 kmh ENE 3.5 mph5.6 kmh 31.83 in1077.9 mb - 0.00 in0.0 mm 0.00 in0.0 mm
06:10 AM 55.4°F13.0°C 46.1°F7.8°C 71% 2.3 mph E3.7 kmh E 3.5 mph5.6 kmh 31.83 in1077.9 mb - 0.00 in0.0 mm 0.00 in0.0 mm
06:15 AM 55.8°F13.2°C 46.5°F8.1°C 71% 2.3 mph E3.7 kmh E 2.3 mph3.7 kmh 31.83 in1077.9 mb - 0.00 in0.0 mm 0.00 in0.0 mm
06:20 AM 55.8°F13.2°C 46.5°F8.1°C 71% 2.3 mph E3.7 kmh E 2.3 mph3.7 kmh 31.83 in1077.9 mb - 0.00 in0.0 mm 0.00 in0.0 mm
06:25 AM 56.0°F13.3°C 46.7°F8.2°C 71% 2.3 mph NE3.7 kmh NE 2.3 mph3.7 kmh 31.83 in1077.9 mb - 0.00 in0.0 mm 0.00 in0.0 mm
06:30 AM 56.1°F13.4°C 46.8°F8.2°C 71% 2.3 mph E3.7 kmh E 2.3 mph3.7 kmh 31.83 in1077.9 mb - 0.00 in0.0 mm 0.00 in0.0 mm
06:35 AM 56.3°F13.5°C 47.0°F8.3°C 71% 2.3 mph E3.7 kmh E 2.3 mph3.7 kmh 31.83 in1077.9 mb - 0.00 in0.0 mm 0.00 in0.0 mm
06:40 AM 56.4°F13.6°C 47.1°F8.4°C 71% 2.3 mph E3.7 kmh E 3.5 mph5.6 kmh 31.83 in1077.9 mb - 0.00 in0.0 mm 0.00 in0.0 mm
06:45 AM 56.5°F13.6°C 47.2°F8.4°C 71% 2.3 mph NE3.7 kmh NE 2.3 mph3.7 kmh 31.83 in1077.9 mb - 0.00 in0.0 mm 0.00 in0.0 mm
06:50 AM 56.9°F13.8°C 47.6°F8.7°C 71% 2.3 mph ENE3.7 kmh ENE 2.3 mph3.7 kmh 31.83 in1077.9 mb - 0.00 in0.0 mm 0.00 in0.0 mm
06:55 AM 57.2°F14.0°C 47.9°F8.8°C 71% 2.3 mph E3.7 kmh E 2.3 mph3.7 kmh 31.83 in1077.9 mb - 0.00 in0.0 mm 0.00 in0.0 mm
07:00 AM 57.6°F14.2°C 47.9°F8.8°C 70% 2.3 mph E3.7 kmh E 2.3 mph3.7 kmh 31.83 in1077.9 mb - 0.00 in0.0 mm 0.00 in0.0 mm
07:10 AM 58.7°F14.8°C 48.1°F8.9°C 68% 2.3 mph E3.7 kmh E 3.5 mph5.6 kmh 31.83 in1077.9 mb - 0.00 in0.0 mm 0.00 in0.0 mm
07:15 AM 59.2°F15.1°C 47.9°F8.8°C 66% 3.5 mph E5.6 kmh E 3.5 mph5.6 kmh 31.83 in1077.9 mb - 0.00 in0.0 mm 0.00 in0.0 mm
07:20 AM 59.7°F15.4°C 47.9°F8.8°C 65% 3.5 mph E5.6 kmh E 3.5 mph5.6 kmh 31.83 in1077.9 mb - 0.00 in0.0 mm 0.00 in0.0 mm
07:25 AM 60.1°F15.6°C 48.3°F9.1°C 65% 3.5 mph E5.6 kmh E 3.5 mph5.6 kmh 31.83 in1077.9 mb - 0.00 in0.0 mm 0.00 in0.0 mm
07:30 AM 60.5°F15.8°C 48.3°F9.1°C 64% 3.5 mph E5.6 kmh E 3.5 mph5.6 kmh 31.83 in1077.9 mb - 0.00 in0.0 mm 0.00 in0.0 mm
07:35 AM 61.1°F16.2°C 48.4°F9.1°C 63% 3.5 mph ENE5.6 kmh ENE 4.6 mph7.4 kmh 31.83 in1077.9 mb - 0.00 in0.0 mm 0.00 in0.0 mm
07:40 AM 61.7°F16.5°C 48.1°F8.9°C 61% 3.5 mph E5.6 kmh E 3.5 mph5.6 kmh 31.83 in1077.9 mb - 0.00 in0.0 mm 0.00 in0.0 mm
07:45 AM 62.3°F16.8°C 48.2°F9.0°C 60% 3.5 mph E5.6 kmh E 4.6 mph7.4 kmh 31.83 in1077.9 mb - 0.00 in0.0 mm 0.00 in0.0 mm
07:50 AM 63.0°F17.2°C 48.4°F9.1°C 59% 3.5 mph E5.6 kmh E 4.6 mph7.4 kmh 31.83 in1077.9 mb - 0.00 in0.0 mm 0.00 in0.0 mm
07:55 AM 63.1°F17.3°C 47.2°F8.4°C 56% 4.6 mph E7.4 kmh E 4.6 mph7.4 kmh 31.83 in1077.9 mb - 0.00 in0.0 mm 0.00 in0.0 mm
08:00 AM 63.7°F17.6°C 48.2°F9.0°C 57% 4.6 mph E7.4 kmh E 5.8 mph9.3 kmh 31.83 in1077.9 mb - 0.00 in0.0 mm 0.00 in0.0 mm
08:10 AM 64.1°F17.8°C 48.1°F8.9°C 56% 3.5 mph E5.6 kmh E 4.6 mph7.4 kmh 31.83 in1077.9 mb - 0.00 in0.0 mm 0.00 in0.0 mm
08:15 AM 64.2°F17.9°C 47.7°F8.7°C 55% 5.8 mph E9.3 kmh E 5.8 mph9.3 kmh 31.83 in1077.9 mb - 0.00 in0.0 mm 0.00 in0.0 mm
08:20 AM 64.4°F18.0°C 47.4°F8.6°C 54% 4.6 mph E7.4 kmh E 4.6 mph7.4 kmh 31.83 in1077.9 mb - 0.00 in0.0 mm 0.00 in0.0 mm
08:25 AM 64.6°F18.1°C 48.1°F8.9°C 55% 4.6 mph E7.4 kmh E 3.5 mph5.6 kmh 31.83 in1077.9 mb - 0.00 in0.0 mm 0.00 in0.0 mm
08:30 AM 65.1°F18.4°C 48.0°F8.9°C 54% 5.8 mph ENE9.3 kmh ENE 5.8 mph9.3 kmh 31.83 in1077.9 mb - 0.00 in0.0 mm 0.00 in0.0 mm
08:35 AM 65.5°F18.6°C 48.4°F9.1°C 54% 3.5 mph E5.6 kmh E 4.6 mph7.4 kmh 31.83 in1077.9 mb - 0.00 in0.0 mm 0.00 in0.0 mm
08:40 AM 66.2°F19.0°C 48.5°F9.2°C 53% 3.5 mph E5.6 kmh E 3.5 mph5.6 kmh 31.83 in1077.9 mb - 0.00 in0.0 mm 0.00 in0.0 mm
08:45 AM 67.0°F19.4°C 48.3°F9.1°C 51% 4.6 mph E7.4 kmh E 4.6 mph7.4 kmh 31.83 in1077.9 mb - 0.00 in0.0 mm 0.00 in0.0 mm
08:50 AM 67.0°F19.4°C 46.6°F8.1°C 48% 6.9 mph E11.1 kmh E 6.9 mph11.1 kmh 31.83 in1077.9 mb - 0.00 in0.0 mm 0.00 in0.0 mm
08:55 AM 67.5°F19.7°C 47.7°F8.7°C 49% 4.6 mph E7.4 kmh E 5.8 mph9.3 kmh 31.83 in1077.9 mb - 0.00 in0.0 mm 0.00 in0.0 mm
09:00 AM 67.8°F19.9°C 47.9°F8.8°C 49% 4.6 mph E7.4 kmh E 5.8 mph9.3 kmh 31.83 in1077.9 mb - 0.00 in0.0 mm 0.00 in0.0 mm
09:10 AM 68.4°F20.2°C 48.0°F8.9°C 48% 4.6 mph E7.4 kmh E 5.8 mph9.3 kmh 31.83 in1077.9 mb - 0.00 in0.0 mm 0.00 in0.0 mm
09:15 AM 68.7°F20.4°C 48.2°F9.0°C 48% 4.6 mph E7.4 kmh E 6.9 mph11.1 kmh 31.83 in1077.9 mb - 0.00 in0.0 mm 0.00 in0.0 mm
09:20 AM 68.9°F20.5°C 47.8°F8.8°C 47% 6.9 mph E11.1 kmh E 8.1 mph13.0 kmh 31.83 in1077.9 mb - 0.00 in0.0 mm 0.00 in0.0 mm
09:25 AM 68.6°F20.3°C 48.2°F9.0°C 48% 5.8 mph E9.3 kmh E 5.8 mph9.3 kmh 31.83 in1077.9 mb - 0.00 in0.0 mm 0.00 in0.0 mm
09:30 AM 69.1°F20.6°C 48.0°F8.9°C 47% 8.1 mph E13.0 kmh E 9.2 mph14.8 kmh 31.83 in1077.9 mb - 0.00 in0.0 mm 0.00 in0.0 mm
09:35 AM 69.6°F20.9°C 48.5°F9.2°C 47% 5.8 mph ESE9.3 kmh ESE 9.2 mph14.8 kmh 31.83 in1077.9 mb - 0.00 in0.0 mm 0.00 in0.0 mm
09:40 AM 69.6°F20.9°C 47.9°F8.8°C 46% 6.9 mph E11.1 kmh E 6.9 mph11.1 kmh 31.83 in1077.9 mb - 0.00 in0.0 mm 0.00 in0.0 mm
09:45 AM 69.9°F21.1°C 48.7°F9.3°C 47% 5.8 mph E9.3 kmh E 5.8 mph9.3 kmh 31.83 in1077.9 mb - 0.00 in0.0 mm 0.00 in0.0 mm
09:50 AM 70.5°F21.4°C 48.7°F9.3°C 46% 4.6 mph E7.4 kmh E 5.8 mph9.3 kmh 31.83 in1077.9 mb - 0.00 in0.0 mm 0.00 in0.0 mm
09:55 AM 70.5°F21.4°C 48.7°F9.3°C 46% 4.6 mph E7.4 kmh E 5.8 mph9.3 kmh 31.83 in1077.9 mb - 0.00 in0.0 mm 0.00 in0.0 mm
10:00 AM 71.1°F21.7°C 49.9°F9.9°C 47% 5.8 mph E9.3 kmh E 6.9 mph11.1 kmh 31.83 in1077.9 mb - 0.00 in0.0 mm 0.00 in0.0 mm
10:10 AM 71.3°F21.8°C 50.0°F10.0°C 47% 5.8 mph ESE9.3 kmh ESE 5.8 mph9.3 kmh 31.83 in1077.9 mb - 0.00 in0.0 mm 0.00 in0.0 mm
10:15 AM 71.4°F21.9°C 50.1°F10.1°C 47% 5.8 mph E9.3 kmh E 8.1 mph13.0 kmh 31.83 in1077.9 mb - 0.00 in0.0 mm 0.00 in0.0 mm
10:20 AM 71.4°F21.9°C 50.1°F10.1°C 47% 5.8 mph ESE9.3 kmh ESE 5.8 mph9.3 kmh 31.83 in1077.9 mb - 0.00 in0.0 mm 0.00 in0.0 mm
10:25 AM 71.6°F22.0°C 50.3°F10.2°C 47% 4.6 mph ESE7.4 kmh ESE 5.8 mph9.3 kmh 31.83 in1077.9 mb - 0.00 in0.0 mm 0.00 in0.0 mm
10:30 AM 72.0°F22.2°C 48.3°F9.1°C 43% 6.9 mph E11.1 kmh E 6.9 mph11.1 kmh 31.83 in1077.9 mb - 0.00 in0.0 mm 0.00 in0.0 mm
10:35 AM 72.1°F22.3°C 49.6°F9.8°C 45% 6.9 mph ESE11.1 kmh ESE 6.9 mph11.1 kmh 31.83 in1077.9 mb - 0.00 in0.0 mm 0.00 in0.0 mm
10:40 AM 72.2°F22.3°C 50.8°F10.4°C 47% 5.8 mph E9.3 kmh E 5.8 mph9.3 kmh 31.83 in1077.9 mb - 0.00 in0.0 mm 0.00 in0.0 mm
10:45 AM 73.0°F22.8°C 51.0°F10.6°C 46% 4.6 mph SE7.4 kmh SE 4.6 mph7.4 kmh 31.83 in1077.9 mb - 0.00 in0.0 mm 0.00 in0.0 mm
10:50 AM 72.4°F22.4°C 51.0°F10.6°C 47% 6.9 mph E11.1 kmh E 6.9 mph11.1 kmh 31.83 in1077.9 mb - 0.00 in0.0 mm 0.00 in0.0 mm
10:55 AM 72.7°F22.6°C 51.9°F11.1°C 48% 4.6 mph E7.4 kmh E 4.6 mph7.4 kmh 31.83 in1077.9 mb - 0.00 in0.0 mm 0.00 in0.0 mm
11:00 AM 74.0°F23.3°C 52.5°F11.4°C 47% 4.6 mph E7.4 kmh E 4.6 mph7.4 kmh 31.83 in1077.9 mb - 0.00 in0.0 mm 0.00 in0.0 mm
11:10 AM 73.5°F23.1°C 52.6°F11.4°C 48% 4.6 mph ESE7.4 kmh ESE 5.8 mph9.3 kmh 31.83 in1077.9 mb - 0.00 in0.0 mm 0.00 in0.0 mm
11:15 AM 73.6°F23.1°C 52.7°F11.5°C 48% 3.5 mph E5.6 kmh E 4.6 mph7.4 kmh 31.83 in1077.9 mb - 0.00 in0.0 mm 0.00 in0.0 mm
11:20 AM 73.3°F22.9°C 53.0°F11.7°C 49% 3.5 mph ESE5.6 kmh ESE 4.6 mph7.4 kmh 31.83 in1077.9 mb - 0.00 in0.0 mm 0.00 in0.0 mm
11:25 AM 70.2°F21.2°C 56.1°F13.4°C 61% 3.5 mph SE5.6 kmh SE 5.8 mph9.3 kmh 31.83 in1077.9 mb - 0.00 in0.0 mm 0.00 in0.0 mm
11:30 AM 68.7°F20.4°C 56.8°F13.8°C 66% 3.5 mph SE5.6 kmh SE 4.6 mph7.4 kmh 31.83 in1077.9 mb - 0.00 in0.0 mm 0.00 in0.0 mm
11:35 AM 69.0°F20.6°C 56.3°F13.5°C 64% 2.3 mph SE3.7 kmh SE 4.6 mph7.4 kmh 31.83 in1077.9 mb - 0.00 in0.0 mm 0.00 in0.0 mm
11:40 AM 68.0°F20.0°C 56.6°F13.7°C 67% 3.5 mph E5.6 kmh E 4.6 mph7.4 kmh 31.83 in1077.9 mb - 0.00 in0.0 mm 0.00 in0.0 mm
11:45 AM 68.6°F20.3°C 57.2°F14.0°C 67% 3.5 mph ESE5.6 kmh ESE 4.6 mph7.4 kmh 31.83 in1077.9 mb - 0.00 in0.0 mm 0.00 in0.0 mm
11:50 AM 68.7°F20.4°C 56.0°F13.3°C 64% 3.5 mph SE5.6 kmh SE 4.6 mph7.4 kmh 31.83 in1077.9 mb - 0.00 in0.0 mm 0.00 in0.0 mm
11:55 AM 68.3°F20.2°C 57.3°F14.1°C 68% 3.5 mph ESE5.6 kmh ESE 3.5 mph5.6 kmh 31.83 in1077.9 mb - 0.00 in0.0 mm 0.00 in0.0 mm
12:00 PM 67.9°F19.9°C 57.7°F14.3°C 70% 2.3 mph ESE3.7 kmh ESE 3.5 mph5.6 kmh 31.83 in1077.9 mb - 0.00 in0.0 mm 0.00 in0.0 mm
12:10 PM 67.5°F19.7°C 57.8°F14.3°C 71% 3.5 mph ESE5.6 kmh ESE 4.6 mph7.4 kmh 31.83 in1077.9 mb - 0.00 in0.0 mm 0.00 in0.0 mm
12:15 PM 67.3°F19.6°C 57.9°F14.4°C 72% 3.5 mph ESE5.6 kmh ESE 3.5 mph5.6 kmh 31.83 in1077.9 mb - 0.00 in0.0 mm 0.00 in0.0 mm
12:20 PM 69.7°F20.9°C 58.7°F14.8°C 68% 3.5 mph ESE5.6 kmh ESE 6.9 mph11.1 kmh 31.83 in1077.9 mb - 0.00 in0.0 mm 0.00 in0.0 mm
12:25 PM 70.1°F21.2°C 58.7°F14.8°C 67% 3.5 mph E5.6 kmh E 4.6 mph7.4 kmh 31.83 in1077.9 mb - 0.00 in0.0 mm 0.00 in0.0 mm
12:30 PM 68.6°F20.3°C 59.2°F15.1°C 72% 2.3 mph ENE3.7 kmh ENE 2.3 mph3.7 kmh 31.83 in1077.9 mb - 0.00 in0.0 mm 0.00 in0.0 mm
12:35 PM 69.7°F20.9°C 59.1°F15.1°C 69% 3.5 mph ESE5.6 kmh ESE 4.6 mph7.4 kmh 31.83 in1077.9 mb - 0.00 in0.0 mm 0.00 in0.0 mm
12:40 PM 69.6°F20.9°C 59.0°F15.0°C 69% 3.5 mph E5.6 kmh E 3.5 mph5.6 kmh 31.83 in1077.9 mb - 0.00 in0.0 mm 0.00 in0.0 mm
12:45 PM 69.6°F20.9°C 58.6°F14.8°C 68% 3.5 mph ESE5.6 kmh ESE 5.8 mph9.3 kmh 31.83 in1077.9 mb - 0.00 in0.0 mm 0.00 in0.0 mm
12:50 PM 70.1°F21.2°C 58.2°F14.6°C 66% 5.8 mph E9.3 kmh E 8.1 mph13.0 kmh 31.83 in1077.9 mb - 0.00 in0.0 mm 0.00 in0.0 mm
12:55 PM 70.9°F21.6°C 59.4°F15.2°C 67% 3.5 mph E5.6 kmh E 3.5 mph5.6 kmh 31.83 in1077.9 mb - 0.00 in0.0 mm 0.00 in0.0 mm
01:00 PM 69.9°F21.1°C 59.2°F15.1°C 69% 3.5 mph ESE5.6 kmh ESE 5.8 mph9.3 kmh 31.83 in1077.9 mb - 0.00 in0.0 mm 0.00 in0.0 mm
01:10 PM 69.8°F21.0°C 58.3°F14.6°C 67% 3.5 mph E5.6 kmh E 3.5 mph5.6 kmh 31.83 in1077.9 mb - 0.00 in0.0 mm 0.00 in0.0 mm
01:15 PM 69.7°F20.9°C 58.6°F14.8°C 68% 3.5 mph SE5.6 kmh SE 3.5 mph5.6 kmh 31.83 in1077.9 mb - 0.00 in0.0 mm 0.00 in0.0 mm
01:20 PM 70.5°F21.4°C 59.0°F15.0°C 67% 3.5 mph ESE5.6 kmh ESE 4.6 mph7.4 kmh 31.83 in1077.9 mb - 0.00 in0.0 mm 0.00 in0.0 mm
01:25 PM 70.6°F21.4°C 59.1°F15.1°C 67% 2.3 mph ESE3.7 kmh ESE 3.5 mph5.6 kmh 31.83 in1077.9 mb - 0.00 in0.0 mm 0.00 in0.0 mm
01:30 PM 71.0°F21.7°C 58.2°F14.6°C 64% 2.3 mph ESE3.7 kmh ESE 2.3 mph3.7 kmh 31.83 in1077.9 mb - 0.00 in0.0 mm 0.00 in0.0 mm
01:35 PM 71.3°F21.8°C 59.4°F15.2°C 66% 2.3 mph ESE3.7 kmh ESE 2.3 mph3.7 kmh 31.83 in1077.9 mb - 0.00 in0.0 mm 0.00 in0.0 mm
01:40 PM 70.9°F21.6°C 59.4°F15.2°C 67% 2.3 mph E3.7 kmh E 2.3 mph3.7 kmh 31.83 in1077.9 mb - 0.00 in0.0 mm 0.00 in0.0 mm
01:45 PM 71.4°F21.9°C 59.4°F15.2°C 66% 2.3 mph SE3.7 kmh SE 2.3 mph3.7 kmh 31.83 in1077.9 mb - 0.00 in0.0 mm 0.00 in0.0 mm
01:50 PM 70.8°F21.6°C 58.9°F14.9°C 66% 4.6 mph SE7.4 kmh SE 5.8 mph9.3 kmh 31.83 in1077.9 mb - 0.00 in0.0 mm 0.00 in0.0 mm
01:55 PM 70.4°F21.3°C 58.9°F14.9°C 67% 2.3 mph SE3.7 kmh SE 3.5 mph5.6 kmh 31.83 in1077.9 mb - 0.00 in0.0 mm 0.00 in0.0 mm
02:00 PM 71.1°F21.7°C 60.8°F16.0°C 70% 2.3 mph SE3.7 kmh SE 2.3 mph3.7 kmh 31.83 in1077.9 mb - 0.00 in0.0 mm 0.00 in0.0 mm
02:10 PM 71.9°F22.2°C 61.6°F16.4°C 70% 1.2 mph E1.9 kmh E 4.6 mph7.4 kmh 31.83 in1077.9 mb - 0.00 in0.0 mm 0.00 in0.0 mm
02:15 PM 71.5°F21.9°C 59.5°F15.3°C 66% 4.6 mph WSW7.4 kmh WSW 5.8 mph9.3 kmh 31.83 in1077.9 mb - 0.00 in0.0 mm 0.00 in0.0 mm
02:20 PM 70.7°F21.5°C 60.4°F15.8°C 70% 3.5 mph S5.6 kmh S 3.5 mph5.6 kmh 31.83 in1077.9 mb - 0.00 in0.0 mm 0.00 in0.0 mm
02:25 PM 72.0°F22.2°C 61.3°F16.3°C 69% 1.2 mph SSW1.9 kmh SSW 2.3 mph3.7 kmh 31.83 in1077.9 mb - 0.00 in0.0 mm 0.00 in0.0 mm
02:30 PM 71.5°F21.9°C 59.5°F15.3°C 66% 2.3 mph ESE3.7 kmh ESE 2.3 mph3.7 kmh 31.83 in1077.9 mb - 0.00 in0.0 mm 0.00 in0.0 mm
02:35 PM 70.5°F21.4°C 58.6°F14.8°C 66% 3.5 mph SE5.6 kmh SE 3.5 mph5.6 kmh 31.83 in1077.9 mb - 0.00 in0.0 mm 0.00 in0.0 mm
02:40 PM 71.1°F21.7°C 59.1°F15.1°C 66% 3.5 mph E5.6 kmh E 3.5 mph5.6 kmh 31.83 in1077.9 mb - 0.00 in0.0 mm 0.00 in0.0 mm
02:45 PM 71.2°F21.8°C 58.8°F14.9°C 65% 4.6 mph ESE7.4 kmh ESE 5.8 mph9.3 kmh 31.83 in1077.9 mb - 0.00 in0.0 mm 0.00 in0.0 mm
02:50 PM 70.9°F21.6°C 58.5°F14.7°C 65% 2.3 mph ESE3.7 kmh ESE 2.3 mph3.7 kmh 31.83 in1077.9 mb - 0.00 in0.0 mm 0.00 in0.0 mm
02:55 PM 71.1°F21.7°C 58.3°F14.6°C 64% 3.5 mph ESE5.6 kmh ESE 4.6 mph7.4 kmh 31.83 in1077.9 mb - 0.00 in0.0 mm 0.00 in0.0 mm
03:00 PM 71.6°F22.0°C 59.2°F15.1°C 65% 2.3 mph ESE3.7 kmh ESE 2.3 mph3.7 kmh 31.83 in1077.9 mb - 0.00 in0.0 mm 0.00 in0.0 mm
03:10 PM 71.3°F21.8°C 58.9°F14.9°C 65% 3.5 mph ESE5.6 kmh ESE 3.5 mph5.6 kmh 31.83 in1077.9 mb - 0.00 in0.0 mm 0.00 in0.0 mm
03:15 PM 71.7°F22.1°C 58.8°F14.9°C 64% 3.5 mph ESE5.6 kmh ESE 5.8 mph9.3 kmh 31.83 in1077.9 mb - 0.00 in0.0 mm 0.00 in0.0 mm
03:20 PM 72.0°F22.2°C 58.2°F14.6°C 62% 2.3 mph SE3.7 kmh SE 3.5 mph5.6 kmh 31.83 in1077.9 mb - 0.00 in0.0 mm 0.00 in0.0 mm
03:25 PM 72.1°F22.3°C 57.9°F14.4°C 61% 3.5 mph ESE5.6 kmh ESE 3.5 mph5.6 kmh 31.83 in1077.9 mb - 0.00 in0.0 mm 0.00 in0.0 mm
03:30 PM 72.9°F22.7°C 58.7°F14.8°C 61% 3.5 mph S5.6 kmh S 3.5 mph5.6 kmh 31.83 in1077.9 mb - 0.00 in0.0 mm 0.00 in0.0 mm
03:35 PM 73.2°F22.9°C 58.4°F14.7°C 60% 3.5 mph E5.6 kmh E 4.6 mph7.4 kmh 31.83 in1077.9 mb - 0.00 in0.0 mm 0.00 in0.0 mm
03:40 PM 73.0°F22.8°C 57.8°F14.3°C 59% 3.5 mph ESE5.6 kmh ESE 2.3 mph3.7 kmh 31.83 in1077.9 mb - 0.00 in0.0 mm 0.00 in0.0 mm
03:45 PM 73.7°F23.2°C 58.0°F14.4°C 58% 2.3 mph SE3.7 kmh SE 3.5 mph5.6 kmh 31.83 in1077.9 mb - 0.00 in0.0 mm 0.00 in0.0 mm
03:50 PM 73.8°F23.2°C 57.6°F14.2°C 57% 2.3 mph E3.7 kmh E 3.5 mph5.6 kmh 31.83 in1077.9 mb - 0.00 in0.0 mm 0.00 in0.0 mm
03:55 PM 74.0°F23.3°C 58.7°F14.8°C 59% 3.5 mph ESE5.6 kmh ESE 4.6 mph7.4 kmh 31.83 in1077.9 mb - 0.00 in0.0 mm 0.00 in0.0 mm
04:00 PM 74.2°F23.4°C 55.9°F13.3°C 53% 3.5 mph ESE5.6 kmh ESE 3.5 mph5.6 kmh 31.83 in1077.9 mb - 0.00 in0.0 mm 0.00 in0.0 mm
04:10 PM 73.9°F23.3°C 55.1°F12.8°C 52% 2.3 mph SE3.7 kmh SE 2.3 mph3.7 kmh 31.83 in1077.9 mb - 0.00 in0.0 mm 0.00 in0.0 mm
04:15 PM 74.3°F23.5°C 55.5°F13.1°C 52% 4.6 mph ESE7.4 kmh ESE 6.9 mph11.1 kmh 31.83 in1077.9 mb - 0.00 in0.0 mm 0.00 in0.0 mm
04:20 PM 77.4°F25.2°C 55.6°F13.1°C 47% 3.5 mph E5.6 kmh E 4.6 mph7.4 kmh 31.83 in1077.9 mb - 0.00 in0.0 mm 0.00 in0.0 mm
04:25 PM 75.1°F23.9°C 55.2°F12.9°C 50% 2.3 mph E3.7 kmh E 3.5 mph5.6 kmh 31.83 in1077.9 mb - 0.00 in0.0 mm 0.00 in0.0 mm
04:30 PM 74.7°F23.7°C 54.8°F12.7°C 50% 3.5 mph SE5.6 kmh SE 4.6 mph7.4 kmh 31.83 in1077.9 mb - 0.00 in0.0 mm 0.00 in0.0 mm
04:35 PM 74.8°F23.8°C 55.0°F12.8°C 50% 2.3 mph ENE3.7 kmh ENE 3.5 mph5.6 kmh 31.83 in1077.9 mb - 0.00 in0.0 mm 0.00 in0.0 mm
04:40 PM 77.5°F25.3°C 54.5°F12.5°C 45% 3.5 mph E5.6 kmh E 3.5 mph5.6 kmh 31.83 in1077.9 mb - 0.00 in0.0 mm 0.00 in0.0 mm
04:45 PM 78.2°F25.7°C 52.6°F11.4°C 41% 5.8 mph ESE9.3 kmh ESE 6.9 mph11.1 kmh 31.83 in1077.9 mb - 0.00 in0.0 mm 0.00 in0.0 mm
04:50 PM 78.3°F25.7°C 52.7°F11.5°C 41% 3.5 mph E5.6 kmh E 3.5 mph5.6 kmh 31.83 in1077.9 mb - 0.00 in0.0 mm 0.00 in0.0 mm
04:55 PM 78.7°F25.9°C 53.0°F11.7°C 41% 3.5 mph NNE5.6 kmh NNE 3.5 mph5.6 kmh 31.83 in1077.9 mb - 0.00 in0.0 mm 0.00 in0.0 mm
05:00 PM 78.8°F26.0°C 51.7°F10.9°C 39% 3.5 mph NE5.6 kmh NE 4.6 mph7.4 kmh 31.83 in1077.9 mb - 0.00 in0.0 mm 0.00 in0.0 mm
05:10 PM 79.2°F26.2°C 52.1°F11.2°C 39% 3.5 mph E5.6 kmh E 3.5 mph5.6 kmh 31.83 in1077.9 mb - 0.00 in0.0 mm 0.00 in0.0 mm
05:15 PM 79.4°F26.3°C 51.6°F10.9°C 38% 3.5 mph E5.6 kmh E 3.5 mph5.6 kmh 31.83 in1077.9 mb - 0.00 in0.0 mm 0.00 in0.0 mm
05:20 PM 78.6°F25.9°C 50.9°F10.5°C 38% 4.6 mph NE7.4 kmh NE 4.6 mph7.4 kmh 31.83 in1077.9 mb - 0.00 in0.0 mm 0.00 in0.0 mm
05:25 PM 78.5°F25.8°C 50.8°F10.4°C 38% 4.6 mph E7.4 kmh E 5.8 mph9.3 kmh 31.83 in1077.9 mb - 0.00 in0.0 mm 0.00 in0.0 mm
05:30 PM 78.4°F25.8°C 51.4°F10.8°C 39% 3.5 mph E5.6 kmh E 4.6 mph7.4 kmh 31.83 in1077.9 mb - 0.00 in0.0 mm 0.00 in0.0 mm
05:35 PM 77.8°F25.4°C 50.1°F10.1°C 38% 3.5 mph E5.6 kmh E 4.6 mph7.4 kmh 31.83 in1077.9 mb - 0.00 in0.0 mm 0.00 in0.0 mm
05:40 PM 77.7°F25.4°C 50.0°F10.0°C 38% 3.5 mph E5.6 kmh E 4.6 mph7.4 kmh 31.83 in1077.9 mb - 0.00 in0.0 mm 0.00 in0.0 mm
05:45 PM 77.8°F25.4°C 49.4°F9.7°C 37% 3.5 mph NE5.6 kmh NE 4.6 mph7.4 kmh 31.83 in1077.9 mb - 0.00 in0.0 mm 0.00 in0.0 mm
05:50 PM 78.0°F25.6°C 49.6°F9.8°C 37% 3.5 mph ENE5.6 kmh ENE 3.5 mph5.6 kmh 31.83 in1077.9 mb - 0.00 in0.0 mm 0.00 in0.0 mm
05:55 PM 77.7°F25.4°C 48.6°F9.2°C 36% 4.6 mph ENE7.4 kmh ENE 4.6 mph7.4 kmh 31.83 in1077.9 mb - 0.00 in0.0 mm 0.00 in0.0 mm
06:00 PM 77.4°F25.2°C 48.3°F9.1°C 36% 4.6 mph E7.4 kmh E 4.6 mph7.4 kmh 31.83 in1077.9 mb - 0.00 in0.0 mm 0.00 in0.0 mm
06:10 PM 77.2°F25.1°C 48.9°F9.4°C 37% 4.6 mph ENE7.4 kmh ENE 6.9 mph11.1 kmh 31.83 in1077.9 mb - 0.00 in0.0 mm 0.00 in0.0 mm
06:15 PM 76.8°F24.9°C 47.8°F8.8°C 36% 4.6 mph ENE7.4 kmh ENE 4.6 mph7.4 kmh 31.83 in1077.9 mb - 0.00 in0.0 mm 0.00 in0.0 mm
06:20 PM 76.2°F24.6°C 47.3°F8.5°C 36% 4.6 mph E7.4 kmh E 5.8 mph9.3 kmh 31.83 in1077.9 mb - 0.00 in0.0 mm 0.00 in0.0 mm
06:25 PM 76.5°F24.7°C 47.5°F8.6°C 36% 3.5 mph NE5.6 kmh NE 4.6 mph7.4 kmh 31.83 in1077.9 mb - 0.00 in0.0 mm 0.00 in0.0 mm
06:30 PM 76.1°F24.5°C 46.4°F8.0°C 35% 4.6 mph ENE7.4 kmh ENE 4.6 mph7.4 kmh 31.83 in1077.9 mb - 0.00 in0.0 mm 0.00 in0.0 mm
06:35 PM 76.4°F24.7°C 45.9°F7.7°C 34% 3.5 mph NE5.6 kmh NE 4.6 mph7.4 kmh 31.83 in1077.9 mb - 0.00 in0.0 mm 0.00 in0.0 mm
06:40 PM 76.1°F24.5°C 45.7°F7.6°C 34% 4.6 mph NE7.4 kmh NE 4.6 mph7.4 kmh 31.83 in1077.9 mb - 0.00 in0.0 mm 0.00 in0.0 mm
06:45 PM 75.6°F24.2°C 46.0°F7.8°C 35% 4.6 mph ENE7.4 kmh ENE 4.6 mph7.4 kmh 31.83 in1077.9 mb - 0.00 in0.0 mm 0.00 in0.0 mm
06:50 PM 74.9°F23.8°C 45.4°F7.4°C 35% 4.6 mph E7.4 kmh E 5.8 mph9.3 kmh 31.83 in1077.9 mb - 0.00 in0.0 mm 0.00 in0.0 mm
06:55 PM 74.8°F23.8°C 45.3°F7.4°C 35% 4.6 mph E7.4 kmh E 4.6 mph7.4 kmh 31.83 in1077.9 mb - 0.00 in0.0 mm 0.00 in0.0 mm
07:00 PM 74.5°F23.6°C 45.0°F7.2°C 35% 4.6 mph ENE7.4 kmh ENE 4.6 mph7.4 kmh 31.83 in1077.9 mb - 0.00 in0.0 mm 0.00 in0.0 mm
07:10 PM 74.0°F23.3°C 43.9°F6.6°C 34% 4.6 mph E7.4 kmh E 4.6 mph7.4 kmh 31.83 in1077.9 mb - 0.00 in0.0 mm 0.00 in0.0 mm
07:15 PM 73.8°F23.2°C 43.6°F6.4°C 34% 4.6 mph E7.4 kmh E 4.6 mph7.4 kmh 31.83 in1077.9 mb - 0.00 in0.0 mm 0.00 in0.0 mm
07:20 PM 73.8°F23.2°C 44.4°F6.9°C 35% 3.5 mph ENE5.6 kmh ENE 3.5 mph5.6 kmh 31.83 in1077.9 mb - 0.00 in0.0 mm 0.00 in0.0 mm
07:25 PM 73.6°F23.1°C 44.2°F6.8°C 35% 4.6 mph E7.4 kmh E 5.8 mph9.3 kmh 31.83 in1077.9 mb - 0.00 in0.0 mm 0.00 in0.0 mm
07:30 PM 73.2°F22.9°C 43.9°F6.6°C 35% 4.6 mph E7.4 kmh E 5.8 mph9.3 kmh 31.83 in1077.9 mb - 0.00 in0.0 mm 0.00 in0.0 mm
07:35 PM 72.9°F22.7°C 43.6°F6.4°C 35% 4.6 mph E7.4 kmh E 4.6 mph7.4 kmh 31.83 in1077.9 mb - 0.00 in0.0 mm 0.00 in0.0 mm
07:40 PM 72.7°F22.6°C 43.4°F6.3°C 35% 4.6 mph E7.4 kmh E 5.8 mph9.3 kmh 31.83 in1077.9 mb - 0.00 in0.0 mm 0.00 in0.0 mm
07:45 PM 72.3°F22.4°C 43.1°F6.2°C 35% 3.5 mph ENE5.6 kmh ENE 3.5 mph5.6 kmh 31.83 in1077.9 mb - 0.00 in0.0 mm 0.00 in0.0 mm
07:50 PM 72.2°F22.3°C 43.0°F6.1°C 35% 3.5 mph ENE5.6 kmh ENE 3.5 mph5.6 kmh 31.83 in1077.9 mb - 0.00 in0.0 mm 0.00 in0.0 mm
07:55 PM 72.2°F22.3°C 43.0°F6.1°C 35% 3.5 mph E5.6 kmh E 4.6 mph7.4 kmh 31.83 in1077.9 mb - 0.00 in0.0 mm 0.00 in0.0 mm
08:00 PM 72.1°F22.3°C 42.9°F6.1°C 35% 4.6 mph E7.4 kmh E 4.6 mph7.4 kmh 31.83 in1077.9 mb - 0.00 in0.0 mm 0.00 in0.0 mm
08:10 PM 71.2°F21.8°C 42.8°F6.0°C 36% 3.5 mph E5.6 kmh E 4.6 mph7.4 kmh 31.83 in1077.9 mb - 0.00 in0.0 mm 0.00 in0.0 mm
08:15 PM 70.9°F21.6°C 43.3°F6.3°C 37% 2.3 mph ENE3.7 kmh ENE 2.3 mph3.7 kmh 31.83 in1077.9 mb - 0.00 in0.0 mm 0.00 in0.0 mm
08:20 PM 70.9°F21.6°C 43.3°F6.3°C 37% 2.3 mph ENE3.7 kmh ENE 2.3 mph3.7 kmh 31.83 in1077.9 mb - 0.00 in0.0 mm 0.00 in0.0 mm
08:25 PM 70.2°F21.2°C 43.4°F6.3°C 38% 2.3 mph NE3.7 kmh NE 2.3 mph3.7 kmh 31.83 in1077.9 mb - 0.00 in0.0 mm 0.00 in0.0 mm
08:30 PM 70.0°F21.1°C 43.9°F6.6°C 39% 2.3 mph NE3.7 kmh NE 2.3 mph3.7 kmh 31.83 in1077.9 mb - 0.00 in0.0 mm 0.00 in0.0 mm
08:35 PM 69.3°F20.7°C 43.3°F6.3°C 39% 2.3 mph NE3.7 kmh NE 2.3 mph3.7 kmh 31.83 in1077.9 mb - 0.00 in0.0 mm 0.00 in0.0 mm
08:40 PM 68.9°F20.5°C 43.6°F6.4°C 40% 2.3 mph E3.7 kmh E 2.3 mph3.7 kmh 31.83 in1077.9 mb - 0.00 in0.0 mm 0.00 in0.0 mm
08:45 PM 68.4°F20.2°C 43.1°F6.2°C 40% 2.3 mph ENE3.7 kmh ENE 3.5 mph5.6 kmh 31.83 in1077.9 mb - 0.00 in0.0 mm 0.00 in0.0 mm
08:50 PM 68.0°F20.0°C 43.4°F6.3°C 41% 2.3 mph NE3.7 kmh NE 2.3 mph3.7 kmh 31.83 in1077.9 mb - 0.00 in0.0 mm 0.00 in0.0 mm
08:55 PM 67.7°F19.8°C 43.8°F6.6°C 42% 2.3 mph ENE3.7 kmh ENE 3.5 mph5.6 kmh 31.83 in1077.9 mb - 0.00 in0.0 mm 0.00 in0.0 mm
09:00 PM 67.3°F19.6°C 43.4°F6.3°C 42% 1.2 mph E1.9 kmh E 2.3 mph3.7 kmh 31.83 in1077.9 mb - 0.00 in0.0 mm 0.00 in0.0 mm
09:10 PM 66.4°F19.1°C 43.2°F6.2°C 43% 2.3 mph E3.7 kmh E 2.3 mph3.7 kmh 31.83 in1077.9 mb - 0.00 in0.0 mm 0.00 in0.0 mm
09:15 PM 66.1°F18.9°C 43.5°F6.4°C 44% 2.3 mph NE3.7 kmh NE 4.6 mph7.4 kmh 31.83 in1077.9 mb - 0.00 in0.0 mm 0.00 in0.0 mm
09:20 PM 65.9°F18.8°C 43.9°F6.6°C 45% 3.5 mph NNE5.6 kmh NNE 4.6 mph7.4 kmh 31.83 in1077.9 mb - 0.00 in0.0 mm 0.00 in0.0 mm
09:25 PM 65.3°F18.5°C 43.4°F6.3°C 45% 2.3 mph NE3.7 kmh NE 3.5 mph5.6 kmh 31.83 in1077.9 mb - 0.00 in0.0 mm 0.00 in0.0 mm
09:30 PM 64.9°F18.3°C 43.7°F6.5°C 46% 2.3 mph NE3.7 kmh NE 3.5 mph5.6 kmh 31.83 in1077.9 mb - 0.00 in0.0 mm 0.00 in0.0 mm
09:35 PM 64.4°F18.0°C 43.7°F6.5°C 47% 2.3 mph NNE3.7 kmh NNE 3.5 mph5.6 kmh 31.83 in1077.9 mb - 0.00 in0.0 mm 0.00 in0.0 mm
09:40 PM 64.1°F17.8°C 43.5°F6.4°C 47% 2.3 mph NE3.7 kmh NE 2.3 mph3.7 kmh 31.83 in1077.9 mb - 0.00 in0.0 mm 0.00 in0.0 mm
09:45 PM 63.8°F17.7°C 43.7°F6.5°C 48% 2.3 mph NNE3.7 kmh NNE 3.5 mph5.6 kmh 31.83 in1077.9 mb - 0.00 in0.0 mm 0.00 in0.0 mm
09:50 PM 63.5°F17.5°C 43.4°F6.3°C 48% 1.2 mph N1.9 kmh N 1.2 mph1.9 kmh 31.83 in1077.9 mb - 0.00 in0.0 mm 0.00 in0.0 mm
09:55 PM 63.2°F17.3°C 43.7°F6.5°C 49% 2.3 mph NNE3.7 kmh NNE 3.5 mph5.6 kmh 31.83 in1077.9 mb - 0.00 in0.0 mm 0.00 in0.0 mm
10:00 PM 63.0°F17.2°C 44.0°F6.7°C 50% 1.2 mph NE1.9 kmh NE 2.3 mph3.7 kmh 31.83 in1077.9 mb - 0.00 in0.0 mm 0.00 in0.0 mm
10:10 PM 62.3°F16.8°C 43.9°F6.6°C 51% 2.3 mph NE3.7 kmh NE 2.3 mph3.7 kmh 31.83 in1077.9 mb - 0.00 in0.0 mm 0.00 in0.0 mm
10:15 PM 62.1°F16.7°C 43.7°F6.5°C 51% 1.2 mph NNE1.9 kmh NNE 2.3 mph3.7 kmh 31.83 in1077.9 mb - 0.00 in0.0 mm 0.00 in0.0 mm
10:20 PM 61.7°F16.5°C 43.9°F6.6°C 52% 2.3 mph NNE3.7 kmh NNE 2.3 mph3.7 kmh 31.83 in1077.9 mb - 0.00 in0.0 mm 0.00 in0.0 mm
10:25 PM 61.5°F16.4°C 44.2°F6.8°C 53% 2.3 mph NNE3.7 kmh NNE 2.3 mph3.7 kmh 31.83 in1077.9 mb - 0.00 in0.0 mm 0.00 in0.0 mm
10:30 PM 61.4°F16.3°C 44.6°F7.0°C 54% 2.3 mph NE3.7 kmh NE 2.3 mph3.7 kmh 31.83 in1077.9 mb - 0.00 in0.0 mm 0.00 in0.0 mm
10:35 PM 61.0°F16.1°C 44.2°F6.8°C 54% 1.2 mph NE1.9 kmh NE 1.2 mph1.9 kmh 31.83 in1077.9 mb - 0.00 in0.0 mm 0.00 in0.0 mm
10:40 PM 60.8°F16.0°C 44.0°F6.7°C 54% 2.3 mph NNE3.7 kmh NNE 2.3 mph3.7 kmh 31.83 in1077.9 mb - 0.00 in0.0 mm 0.00 in0.0 mm
10:45 PM 60.6°F15.9°C 44.3°F6.8°C 55% 2.3 mph NNE3.7 kmh NNE 2.3 mph3.7 kmh 31.83 in1077.9 mb - 0.00 in0.0 mm 0.00 in0.0 mm
10:50 PM 60.5°F15.8°C 44.7°F7.1°C 56% 2.3 mph NNE3.7 kmh NNE 2.3 mph3.7 kmh 31.83 in1077.9 mb - 0.00 in0.0 mm 0.00 in0.0 mm
10:55 PM 60.2°F15.7°C 44.4°F6.9°C 56% 2.3 mph NE3.7 kmh NE 2.3 mph3.7 kmh 31.83 in1077.9 mb - 0.00 in0.0 mm 0.00 in0.0 mm
11:00 PM 59.9°F15.5°C 44.6°F7.0°C 57% 1.2 mph NE1.9 kmh NE 1.2 mph1.9 kmh 31.83 in1077.9 mb - 0.00 in0.0 mm 0.00 in0.0 mm
11:10 PM 59.6°F15.3°C 44.8°F7.1°C 58% Calm Calm -- 31.83 in1077.9 mb - 0.00 in0.0 mm 0.00 in0.0 mm
11:15 PM 59.4°F15.2°C 45.0°F7.2°C 59% 1.2 mph NE1.9 kmh NE 1.2 mph1.9 kmh 31.83 in1077.9 mb - 0.00 in0.0 mm 0.00 in0.0 mm
11:20 PM 59.2°F15.1°C 44.9°F7.2°C 59% 2.3 mph NE3.7 kmh NE 2.3 mph3.7 kmh 31.83 in1077.9 mb - 0.00 in0.0 mm 0.00 in0.0 mm
11:25 PM 59.0°F15.0°C 44.7°F7.1°C 59% 1.2 mph ENE1.9 kmh ENE 1.2 mph1.9 kmh 31.83 in1077.9 mb - 0.00 in0.0 mm 0.00 in0.0 mm
11:30 PM 58.8°F14.9°C 44.9°F7.2°C 60% 1.2 mph ENE1.9 kmh ENE 1.2 mph1.9 kmh 31.83 in1077.9 mb - 0.00 in0.0 mm 0.00 in0.0 mm
11:35 PM 58.8°F14.9°C 45.4°F7.4°C 61% 1.2 mph ENE1.9 kmh ENE 1.2 mph1.9 kmh 31.83 in1077.9 mb - 0.00 in0.0 mm 0.00 in0.0 mm
11:40 PM 58.7°F14.8°C 45.7°F7.6°C 62% 1.2 mph ENE1.9 kmh ENE 1.2 mph1.9 kmh 31.83 in1077.9 mb - 0.00 in0.0 mm 0.00 in0.0 mm
11:45 PM 58.3°F14.6°C 45.8°F7.7°C 63% 1.2 mph NE1.9 kmh NE 1.2 mph1.9 kmh 31.83 in1077.9 mb - 0.00 in0.0 mm 0.00 in0.0 mm
11:50 PM 58.1°F14.5°C 45.6°F7.6°C 63% 1.2 mph ENE1.9 kmh ENE 1.2 mph1.9 kmh 31.83 in1077.9 mb - 0.00 in0.0 mm 0.00 in0.0 mm
11:55 PM 57.9°F14.4°C 45.8°F7.7°C 64% 1.2 mph ENE1.9 kmh ENE 1.2 mph1.9 kmh 31.83 in1077.9 mb - 0.00 in0.0 mm 0.00 in0.0 mm